createdAt,value
2019-03-17T00:00:49.254Z,89.03
2019-03-17T00:01:57.161Z,89.31
2019-03-17T00:02:49.254Z,88.93
2019-03-17T00:03:49.263Z,88.84
2019-03-17T00:04:50.171Z,88.74
2019-03-17T00:05:49.153Z,89.03
2019-03-17T00:06:49.149Z,89.12
2019-03-17T00:07:49.188Z,89.12
2019-03-17T00:08:49.114Z,89.07
2019-03-17T00:09:49.107Z,89.31
2019-03-17T00:10:49.023Z,89.12
2019-03-17T00:11:48.998Z,89.40
2019-03-17T00:12:48.977Z,89.12
2019-03-17T00:13:48.954Z,89.12
2019-03-17T00:14:48.928Z,89.03
2019-03-17T00:15:48.909Z,89.12
2019-03-17T00:16:48.897Z,89.12
2019-03-17T00:17:48.858Z,89.03
2019-03-17T00:18:48.834Z,88.98
2019-03-17T00:19:48.812Z,88.74
2019-03-17T00:20:48.790Z,89.03
2019-03-17T00:21:48.770Z,88.50
2019-03-17T00:22:48.742Z,89.22
2019-03-17T00:23:48.728Z,88.93
2019-03-17T00:24:48.700Z,88.36
2019-03-17T00:25:48.673Z,88.78
2019-03-17T00:26:48.662Z,88.88
2019-03-17T00:27:49.147Z,89.17
2019-03-17T00:28:48.605Z,88.84
2019-03-17T00:29:48.613Z,89.03
2019-03-17T00:30:48.558Z,88.93
2019-03-17T00:31:48.535Z,88.84
2019-03-17T00:32:48.513Z,88.74
2019-03-17T00:33:48.695Z,88.93
2019-03-17T00:34:50.801Z,88.74
2019-03-17T00:35:48.443Z,88.84
2019-03-17T00:36:48.418Z,89.07
2019-03-17T00:37:48.394Z,89.12
2019-03-17T00:38:49.202Z,88.74
2019-03-17T00:39:49.042Z,89.40
2019-03-17T00:40:48.335Z,88.84
2019-03-17T00:41:48.307Z,88.93
2019-03-17T00:42:48.280Z,88.93
2019-03-17T00:43:48.306Z,89.31
2019-03-17T00:44:48.259Z,89.17
2019-03-17T00:45:48.269Z,88.55
2019-03-17T00:46:48.224Z,88.45
2019-03-17T00:47:48.224Z,88.45
2019-03-17T00:48:48.182Z,88.55
2019-03-17T00:49:48.172Z,88.55
2019-03-17T00:50:49.111Z,88.55
2019-03-17T00:51:48.072Z,88.78
2019-03-17T00:52:48.144Z,88.45
2019-03-17T00:53:48.080Z,88.69
2019-03-17T00:54:48.059Z,88.74
2019-03-17T00:55:47.998Z,88.31
2019-03-17T00:56:47.956Z,88.36
2019-03-17T00:57:47.966Z,88.31
2019-03-17T00:58:47.911Z,88.36
2019-03-17T00:59:47.945Z,88.45
2019-03-17T01:00:47.865Z,88.40
2019-03-17T01:01:47.841Z,88.45
2019-03-17T01:02:47.873Z,88.12
2019-03-17T01:03:47.796Z,87.93
2019-03-17T01:04:56.081Z,88.21
2019-03-17T01:05:47.751Z,88.02
2019-03-17T01:06:47.730Z,88.40
2019-03-17T01:07:47.706Z,87.74
2019-03-17T01:08:47.701Z,87.88
2019-03-17T01:09:47.701Z,87.79
2019-03-17T01:10:47.689Z,87.98
2019-03-17T01:11:47.647Z,87.69
2019-03-17T01:12:47.654Z,87.69
2019-03-17T01:13:47.588Z,87.79
2019-03-17T01:14:47.564Z,87.60
2019-03-17T01:15:47.523Z,87.64
2019-03-17T01:16:47.509Z,87.98
2019-03-17T01:17:47.471Z,87.98
2019-03-17T01:18:47.452Z,87.69
2019-03-17T01:19:47.488Z,87.79
2019-03-17T01:20:47.495Z,87.98
2019-03-17T01:21:47.387Z,87.69
2019-03-17T01:22:47.411Z,87.69
2019-03-17T01:23:47.377Z,88.36
2019-03-17T01:24:47.311Z,88.26
2019-03-17T01:25:47.358Z,87.88
2019-03-17T01:26:47.264Z,87.98
2019-03-17T01:27:47.240Z,87.69
2019-03-17T01:28:47.255Z,88.07
2019-03-17T01:29:47.195Z,87.69
2019-03-17T01:30:47.241Z,88.36
2019-03-17T01:31:47.154Z,88.45
2019-03-17T01:32:47.125Z,88.55
2019-03-17T01:33:47.106Z,88.26
2019-03-17T01:34:47.859Z,88.07
2019-03-17T01:35:49.701Z,87.98
2019-03-17T01:36:47.093Z,88.07
2019-03-17T01:37:47.012Z,87.88
2019-03-17T01:38:46.992Z,88.07
2019-03-17T01:39:46.969Z,88.45
2019-03-17T01:40:46.941Z,88.17
2019-03-17T01:41:46.916Z,88.26
2019-03-17T01:42:46.954Z,88.36
2019-03-17T01:43:46.875Z,88.45
2019-03-17T01:44:46.848Z,88.36
2019-03-17T01:45:46.820Z,88.07
2019-03-17T01:46:46.800Z,87.98
2019-03-17T01:47:46.824Z,87.98
2019-03-17T01:48:46.791Z,87.79
2019-03-17T01:49:46.729Z,87.98
2019-03-17T01:50:46.708Z,87.69
2019-03-17T01:51:46.682Z,86.83
2019-03-17T01:52:46.659Z,86.83
2019-03-17T01:53:46.638Z,86.65
2019-03-17T01:54:46.620Z,86.26
2019-03-17T01:55:46.591Z,86.45
2019-03-17T01:56:46.563Z,86.45
2019-03-17T01:57:46.542Z,86.16
2019-03-17T01:58:46.528Z,86.26
2019-03-17T01:59:46.498Z,86.26
2019-03-17T02:00:46.474Z,86.55
2019-03-17T02:01:46.449Z,86.59
2019-03-17T02:02:46.424Z,86.26
2019-03-17T02:03:46.405Z,86.40
2019-03-17T02:04:46.385Z,86.26
2019-03-17T02:05:46.356Z,85.88
2019-03-17T02:06:46.338Z,85.97
2019-03-17T02:07:46.309Z,85.60
2019-03-17T02:08:46.285Z,85.60
2019-03-17T02:09:46.264Z,85.60
2019-03-17T02:10:46.292Z,85.73
2019-03-17T02:11:46.219Z,85.97
2019-03-17T02:12:46.190Z,85.69
2019-03-17T02:13:46.170Z,86.45
2019-03-17T02:14:46.143Z,86.55
2019-03-17T02:15:46.128Z,86.26
2019-03-17T02:16:46.100Z,86.55
2019-03-17T02:17:46.075Z,86.55
2019-03-17T02:18:46.054Z,86.55
2019-03-17T02:19:46.027Z,86.83
2019-03-17T02:20:46.008Z,86.74
2019-03-17T02:21:45.983Z,87.12
2019-03-17T02:22:45.967Z,86.93
2019-03-17T02:23:45.934Z,86.93
2019-03-17T02:24:45.913Z,87.02
2019-03-17T02:25:45.895Z,87.02
2019-03-17T02:26:45.866Z,87.60
2019-03-17T02:27:45.841Z,87.79
2019-03-17T02:28:45.851Z,87.69
2019-03-17T02:29:45.793Z,87.79
2019-03-17T02:30:45.821Z,87.40
2019-03-17T02:31:45.753Z,87.50
2019-03-17T02:32:45.728Z,87.60
2019-03-17T02:33:45.713Z,87.40
2019-03-17T02:34:45.681Z,87.40
2019-03-17T02:35:45.678Z,87.69
2019-03-17T02:36:45.641Z,87.40
2019-03-17T02:37:45.644Z,87.12
2019-03-17T02:38:45.594Z,87.02
2019-03-17T02:39:45.564Z,87.21
2019-03-17T02:40:45.545Z,87.02
2019-03-17T02:41:45.521Z,87.50
2019-03-17T02:42:45.495Z,87.50
2019-03-17T02:43:45.473Z,87.69
2019-03-17T02:44:45.448Z,86.83
2019-03-17T02:45:45.425Z,87.60
2019-03-17T02:46:45.400Z,86.74
2019-03-17T02:47:45.383Z,86.93
2019-03-17T02:48:45.355Z,86.55
2019-03-17T02:49:45.336Z,86.74
2019-03-17T02:50:45.309Z,86.55
2019-03-17T02:51:45.291Z,87.02
2019-03-17T02:52:45.260Z,86.74
2019-03-17T02:53:45.242Z,87.02
2019-03-17T02:54:45.215Z,87.02
2019-03-17T02:55:45.191Z,86.93
2019-03-17T02:56:45.167Z,86.93
2019-03-17T02:57:45.170Z,87.12
2019-03-17T02:58:45.122Z,87.12
2019-03-17T02:59:45.100Z,86.45
2019-03-17T03:00:45.081Z,87.21
2019-03-17T03:01:45.051Z,86.93
2019-03-17T03:02:45.035Z,86.93
2019-03-17T03:03:45.009Z,87.12
2019-03-17T03:04:44.980Z,86.93
2019-03-17T03:05:54.945Z,86.55
2019-03-17T03:06:44.938Z,86.83
2019-03-17T03:07:44.918Z,86.45
2019-03-17T03:08:44.888Z,86.55
2019-03-17T03:09:44.869Z,86.74
2019-03-17T03:10:44.846Z,86.45
2019-03-17T03:11:44.821Z,86.55
2019-03-17T03:12:44.793Z,86.45
2019-03-17T03:13:44.774Z,86.74
2019-03-17T03:14:44.749Z,86.45
2019-03-17T03:15:44.730Z,86.55
2019-03-17T03:16:44.703Z,86.45
2019-03-17T03:17:44.684Z,86.55
2019-03-17T03:18:44.655Z,86.74
2019-03-17T03:19:44.639Z,86.74
2019-03-17T03:20:44.608Z,86.74
2019-03-17T03:21:44.586Z,86.74
2019-03-17T03:22:44.567Z,86.74
2019-03-17T03:23:44.555Z,86.45
2019-03-17T03:24:44.592Z,86.45
2019-03-17T03:25:44.490Z,86.45
2019-03-17T03:26:44.466Z,87.02
2019-03-17T03:27:44.449Z,87.02
2019-03-17T03:28:44.419Z,86.93
2019-03-17T03:29:44.400Z,87.31
2019-03-17T03:30:44.375Z,86.83
2019-03-17T03:31:44.449Z,86.45
2019-03-17T03:32:44.329Z,86.93
2019-03-17T03:33:44.303Z,86.93
2019-03-17T03:34:44.288Z,87.50
2019-03-17T03:35:44.284Z,87.40
2019-03-17T03:36:45.171Z,87.88
2019-03-17T03:37:44.214Z,87.60
2019-03-17T03:38:44.243Z,87.40
2019-03-17T03:39:44.166Z,87.31
2019-03-17T03:40:44.138Z,87.79
2019-03-17T03:41:44.117Z,87.50
2019-03-17T03:42:44.094Z,87.40
2019-03-17T03:43:44.070Z,87.79
2019-03-17T03:44:44.060Z,87.88
2019-03-17T03:45:44.028Z,87.02
2019-03-17T03:46:44.017Z,87.60
2019-03-17T03:47:43.975Z,87.40
2019-03-17T03:48:43.965Z,87.40
2019-03-17T03:49:43.959Z,87.88
2019-03-17T03:50:43.914Z,88.07
2019-03-17T03:51:43.882Z,88.36
2019-03-17T03:52:43.859Z,88.26
2019-03-17T03:53:43.841Z,88.93
2019-03-17T03:54:43.814Z,88.74
2019-03-17T03:55:43.789Z,88.74
2019-03-17T03:56:43.771Z,89.26
2019-03-17T03:57:43.744Z,89.07
2019-03-17T03:58:43.721Z,88.74
2019-03-17T03:59:43.697Z,88.70
2019-03-17T04:00:43.684Z,88.93
2019-03-17T04:01:43.646Z,88.93
2019-03-17T04:02:43.630Z,88.84
2019-03-17T04:03:43.607Z,88.89
2019-03-17T04:04:43.577Z,88.51
2019-03-17T04:05:43.549Z,88.70
2019-03-17T04:06:43.530Z,89.22
2019-03-17T04:07:43.537Z,89.17
2019-03-17T04:08:43.489Z,88.84
2019-03-17T04:09:43.463Z,88.79
2019-03-17T04:10:43.434Z,88.84
2019-03-17T04:11:43.414Z,89.07
2019-03-17T04:12:43.392Z,88.60
2019-03-17T04:13:43.365Z,89.50
2019-03-17T04:14:43.341Z,88.89
2019-03-17T04:15:43.317Z,89.17
2019-03-17T04:16:43.298Z,88.98
2019-03-17T04:17:43.276Z,88.89
2019-03-17T04:18:43.247Z,89.46
2019-03-17T04:19:43.221Z,88.98
2019-03-17T04:20:43.204Z,88.89
2019-03-17T04:21:43.195Z,88.70
2019-03-17T04:22:43.171Z,88.79
2019-03-17T04:23:43.127Z,88.70
2019-03-17T04:24:43.107Z,88.79
2019-03-17T04:25:43.089Z,88.89
2019-03-17T04:26:43.059Z,88.79
2019-03-17T04:27:43.035Z,88.89
2019-03-17T04:28:43.010Z,89.07
2019-03-17T04:29:42.993Z,89.65
2019-03-17T04:30:42.966Z,89.26
2019-03-17T04:31:42.945Z,89.17
2019-03-17T04:32:42.915Z,89.65
2019-03-17T04:33:42.891Z,88.98
2019-03-17T04:34:42.869Z,88.98
2019-03-17T04:35:45.703Z,88.89
2019-03-17T04:36:42.824Z,89.26
2019-03-17T04:37:43.539Z,89.65
2019-03-17T04:38:43.965Z,90.03
2019-03-17T04:39:42.753Z,89.94
2019-03-17T04:40:42.727Z,90.12
2019-03-17T04:41:42.707Z,90.22
2019-03-17T04:42:42.683Z,90.50
2019-03-17T04:43:42.654Z,90.41
2019-03-17T04:44:42.643Z,90.12
2019-03-17T04:45:42.610Z,90.22
2019-03-17T04:46:42.583Z,90.56
2019-03-17T04:47:42.568Z,90.22
2019-03-17T04:48:42.574Z,90.27
2019-03-17T04:49:42.513Z,90.12
2019-03-17T04:50:42.488Z,89.89
2019-03-17T04:51:42.468Z,90.79
2019-03-17T04:52:42.441Z,90.75
2019-03-17T04:53:42.423Z,90.84
2019-03-17T04:54:42.404Z,91.03
2019-03-17T04:55:42.374Z,91.03
2019-03-17T04:56:42.345Z,91.41
2019-03-17T04:57:42.331Z,91.13
2019-03-17T04:58:42.299Z,91.60
2019-03-17T04:59:42.276Z,91.89
2019-03-17T05:00:42.272Z,91.51
2019-03-17T05:01:42.229Z,91.70
2019-03-17T05:02:42.218Z,91.79
2019-03-17T05:03:42.179Z,92.55
2019-03-17T05:04:42.159Z,92.84
2019-03-17T05:05:42.134Z,92.36
2019-03-17T05:06:52.031Z,92.46
2019-03-17T05:07:42.086Z,93.03
2019-03-17T05:08:42.058Z,93.03
2019-03-17T05:09:42.032Z,93.41
2019-03-17T05:10:42.012Z,93.51
2019-03-17T05:11:41.987Z,93.60
2019-03-17T05:12:41.964Z,93.89
2019-03-17T05:13:41.937Z,93.94
2019-03-17T05:14:41.917Z,93.84
2019-03-17T05:15:41.893Z,94.42
2019-03-17T05:16:41.865Z,94.51
2019-03-17T05:17:41.839Z,94.51
2019-03-17T05:18:41.819Z,94.98
2019-03-17T05:19:41.792Z,94.98
2019-03-17T05:20:41.770Z,94.79
2019-03-17T05:21:41.742Z,95.75
2019-03-17T05:22:41.723Z,94.89
2019-03-17T05:23:41.703Z,95.65
2019-03-17T05:24:41.673Z,95.46
2019-03-17T05:25:41.647Z,95.36
2019-03-17T05:26:41.623Z,95.46
2019-03-17T05:27:41.601Z,95.94
2019-03-17T05:28:41.578Z,95.65
2019-03-17T05:29:41.550Z,95.84
2019-03-17T05:30:41.527Z,96.03
2019-03-17T05:31:41.501Z,95.94
2019-03-17T05:32:41.481Z,95.94
2019-03-17T05:33:41.455Z,96.22
2019-03-17T05:34:41.431Z,95.94
2019-03-17T05:35:41.403Z,96.60
2019-03-17T05:36:41.380Z,96.41
2019-03-17T05:37:41.359Z,96.31
2019-03-17T05:38:41.929Z,97.08
2019-03-17T05:39:41.310Z,96.98
2019-03-17T05:40:41.287Z,96.70
2019-03-17T05:41:41.260Z,96.51
2019-03-17T05:42:41.331Z,96.98
2019-03-17T05:43:41.223Z,97.03
2019-03-17T05:44:41.194Z,97.17
2019-03-17T05:45:41.160Z,97.31
2019-03-17T05:46:41.137Z,96.98
2019-03-17T05:47:41.118Z,97.13
2019-03-17T05:48:41.091Z,97.60
2019-03-17T05:49:41.063Z,97.50
2019-03-17T05:50:41.038Z,97.60
2019-03-17T05:51:41.017Z,97.69
2019-03-17T05:52:40.988Z,97.69
2019-03-17T05:53:40.965Z,97.22
2019-03-17T05:54:40.941Z,97.79
2019-03-17T05:55:40.935Z,97.65
2019-03-17T05:56:40.905Z,98.13
2019-03-17T05:57:40.871Z,97.69
2019-03-17T05:58:40.858Z,98.27
2019-03-17T05:59:40.822Z,98.08
2019-03-17T06:00:40.799Z,97.98
2019-03-17T06:01:40.772Z,98.36
2019-03-17T06:02:40.745Z,97.98
2019-03-17T06:03:40.720Z,98.27
2019-03-17T06:04:40.699Z,98.55
2019-03-17T06:05:40.670Z,98.46
2019-03-17T06:06:40.655Z,98.65
2019-03-17T06:07:40.625Z,98.27
2019-03-17T06:08:43.246Z,98.55
2019-03-17T06:09:40.574Z,98.27
2019-03-17T06:10:40.548Z,98.74
2019-03-17T06:11:40.524Z,98.65
2019-03-17T06:12:40.505Z,98.46
2019-03-17T06:13:40.482Z,98.65
2019-03-17T06:14:40.452Z,98.46
2019-03-17T06:15:40.425Z,98.46
2019-03-17T06:16:40.399Z,98.55
2019-03-17T06:17:40.381Z,97.79
2019-03-17T06:18:40.350Z,98.83
2019-03-17T06:19:40.326Z,98.46
2019-03-17T06:20:40.304Z,98.27
2019-03-17T06:21:40.278Z,98.27
2019-03-17T06:22:40.253Z,98.55
2019-03-17T06:23:40.241Z,98.74
2019-03-17T06:24:40.201Z,98.55
2019-03-17T06:25:40.177Z,98.83
2019-03-17T06:26:40.202Z,98.46
2019-03-17T06:27:40.131Z,98.17
2019-03-17T06:28:40.105Z,98.74
2019-03-17T06:29:40.079Z,98.17
2019-03-17T06:30:40.061Z,98.46
2019-03-17T06:31:40.030Z,98.65
2019-03-17T06:32:40.005Z,98.65
2019-03-17T06:33:39.981Z,98.36
2019-03-17T06:34:39.957Z,98.65
2019-03-17T06:35:40.031Z,98.65
2019-03-17T06:36:42.738Z,98.83
2019-03-17T06:37:39.881Z,99.12
2019-03-17T06:38:40.861Z,98.65
2019-03-17T06:39:40.228Z,98.74
2019-03-17T06:40:39.803Z,98.55
2019-03-17T06:41:39.780Z,98.83
2019-03-17T06:42:39.756Z,98.83
2019-03-17T06:43:39.731Z,99.02
2019-03-17T06:44:39.707Z,98.83
2019-03-17T06:45:39.681Z,98.83
2019-03-17T06:46:39.663Z,98.83
2019-03-17T06:47:39.631Z,98.36
2019-03-17T06:48:39.606Z,98.46
2019-03-17T06:49:39.585Z,99.12
2019-03-17T06:50:39.557Z,99.12
2019-03-17T06:51:39.532Z,99.41
2019-03-17T06:52:39.506Z,99.41
2019-03-17T06:53:39.522Z,99.31
2019-03-17T06:54:39.461Z,98.93
2019-03-17T06:55:39.434Z,99.22
2019-03-17T06:56:39.417Z,99.02
2019-03-17T06:57:39.381Z,99.31
2019-03-17T06:58:39.360Z,98.93
2019-03-17T06:59:39.342Z,99.22
2019-03-17T07:00:39.310Z,99.12
2019-03-17T07:01:39.286Z,99.50
2019-03-17T07:02:39.257Z,99.50
2019-03-17T07:03:39.233Z,99.31
2019-03-17T07:04:39.210Z,99.22
2019-03-17T07:05:39.183Z,99.22
2019-03-17T07:06:39.163Z,99.02
2019-03-17T07:07:44.237Z,99.12
2019-03-17T07:08:39.108Z,98.93
2019-03-17T07:09:39.115Z,99.69
2019-03-17T07:10:39.059Z,99.41
2019-03-17T07:11:39.034Z,99.31
2019-03-17T07:12:39.010Z,99.02
2019-03-17T07:13:38.991Z,99.50
2019-03-17T07:14:38.961Z,99.50
2019-03-17T07:15:38.941Z,99.41
2019-03-17T07:16:38.908Z,99.41
2019-03-17T07:17:38.893Z,99.02
2019-03-17T07:18:38.865Z,99.31
2019-03-17T07:19:38.842Z,99.41
2019-03-17T07:20:38.815Z,99.02
2019-03-17T07:21:38.783Z,99.31
2019-03-17T07:22:38.759Z,99.50
2019-03-17T07:23:38.735Z,99.50
2019-03-17T07:24:38.723Z,99.12
2019-03-17T07:25:38.682Z,99.26
2019-03-17T07:26:38.660Z,99.45
2019-03-17T07:27:38.637Z,99.16
2019-03-17T07:28:38.606Z,99.55
2019-03-17T07:29:38.599Z,98.88
2019-03-17T07:30:38.560Z,99.84
2019-03-17T07:31:38.542Z,99.45
2019-03-17T07:32:38.508Z,99.55
2019-03-17T07:33:38.485Z,99.21
2019-03-17T07:34:38.462Z,98.55
2019-03-17T07:35:38.433Z,98.74
2019-03-17T07:36:38.408Z,98.64
2019-03-17T07:37:38.410Z,99.02
2019-03-17T07:38:38.358Z,98.55
2019-03-17T07:39:38.332Z,99.11
2019-03-17T07:40:38.307Z,98.93
2019-03-17T07:41:38.288Z,99.02
2019-03-17T07:42:38.259Z,99.40
2019-03-17T07:43:38.233Z,98.64
2019-03-17T07:44:38.211Z,99.30
2019-03-17T07:45:38.184Z,98.83
2019-03-17T07:46:38.161Z,99.02
2019-03-17T07:47:38.164Z,98.74
2019-03-17T07:48:38.114Z,98.74
2019-03-17T07:49:38.086Z,98.83
2019-03-17T07:50:38.062Z,98.74
2019-03-17T07:51:38.038Z,99.07
2019-03-17T07:52:38.012Z,98.88
2019-03-17T07:53:37.984Z,98.88
2019-03-17T07:54:37.967Z,98.88
2019-03-17T07:55:37.936Z,98.36
2019-03-17T07:56:37.916Z,99.21
2019-03-17T07:57:37.888Z,98.45
2019-03-17T07:58:37.858Z,98.74
2019-03-17T07:59:37.841Z,99.02
2019-03-17T08:00:37.810Z,99.11
2019-03-17T08:01:37.788Z,98.12
2019-03-17T08:02:37.761Z,98.79
2019-03-17T08:03:37.739Z,98.50
2019-03-17T08:04:42.416Z,99.07
2019-03-17T08:05:37.691Z,98.50
2019-03-17T08:06:37.662Z,98.59
2019-03-17T08:07:37.638Z,98.50
2019-03-17T08:08:37.716Z,98.21
2019-03-17T08:09:37.588Z,98.88
2019-03-17T08:10:37.562Z,98.12
2019-03-17T08:11:37.541Z,97.74
2019-03-17T08:12:37.530Z,98.31
2019-03-17T08:13:37.486Z,98.69
2019-03-17T08:14:37.460Z,98.31
2019-03-17T08:15:37.445Z,97.55
2019-03-17T08:16:37.415Z,97.74
2019-03-17T08:17:37.393Z,98.64
2019-03-17T08:18:37.360Z,99.11
2019-03-17T08:19:37.339Z,98.07
2019-03-17T08:20:37.318Z,98.74
2019-03-17T08:21:37.286Z,98.74
2019-03-17T08:22:37.267Z,98.83
2019-03-17T08:23:37.262Z,97.74
2019-03-17T08:24:37.214Z,98.31
2019-03-17T08:25:37.201Z,97.55
2019-03-17T08:26:37.232Z,97.74
2019-03-17T08:27:37.172Z,97.78
2019-03-17T08:28:37.113Z,97.69
2019-03-17T08:29:37.133Z,97.36
2019-03-17T08:30:37.063Z,97.74
2019-03-17T08:31:37.036Z,97.41
2019-03-17T08:32:37.024Z,97.74
2019-03-17T08:33:36.985Z,97.17
2019-03-17T08:34:37.023Z,97.45
2019-03-17T08:35:36.941Z,97.55
2019-03-17T08:36:37.848Z,97.64
2019-03-17T08:37:36.963Z,97.27
2019-03-17T08:38:36.908Z,97.27
2019-03-17T08:39:36.857Z,97.22
2019-03-17T08:40:36.855Z,96.93
2019-03-17T08:41:37.780Z,97.60
2019-03-17T08:42:36.764Z,97.78
2019-03-17T08:43:36.750Z,97.50
2019-03-17T08:44:36.710Z,97.97
2019-03-17T08:45:36.686Z,97.31
2019-03-17T08:46:36.665Z,97.69
2019-03-17T08:47:36.639Z,96.84
2019-03-17T08:48:36.613Z,97.17
2019-03-17T08:49:36.585Z,97.22
2019-03-17T08:50:36.561Z,97.69
2019-03-17T08:51:36.751Z,96.93
2019-03-17T08:52:36.545Z,97.03
2019-03-17T08:53:36.497Z,97.41
2019-03-17T08:54:36.461Z,96.36
2019-03-17T08:55:36.458Z,96.74
2019-03-17T08:56:36.430Z,96.74
2019-03-17T08:57:36.432Z,96.93
2019-03-17T08:58:36.365Z,96.69
2019-03-17T08:59:36.456Z,97.27
2019-03-17T09:00:36.326Z,96.50
2019-03-17T09:01:36.292Z,96.84
2019-03-17T09:02:37.231Z,97.12
2019-03-17T09:03:36.239Z,96.55
2019-03-17T09:04:36.215Z,97.17
2019-03-17T09:05:36.226Z,97.03
2019-03-17T09:06:36.164Z,96.36
2019-03-17T09:07:36.138Z,97.03
2019-03-17T09:08:36.123Z,96.08
2019-03-17T09:09:36.125Z,96.65
2019-03-17T09:10:37.772Z,96.93
2019-03-17T09:11:36.053Z,97.12
2019-03-17T09:12:36.058Z,96.26
2019-03-17T09:13:35.987Z,96.74
2019-03-17T09:14:36.003Z,96.74
2019-03-17T09:15:35.940Z,96.89
2019-03-17T09:16:35.924Z,97.03
2019-03-17T09:17:35.897Z,96.65
2019-03-17T09:18:35.866Z,96.93
2019-03-17T09:19:35.844Z,96.26
2019-03-17T09:20:35.846Z,95.89
2019-03-17T09:21:35.810Z,96.22
2019-03-17T09:22:35.770Z,96.26
2019-03-17T09:23:36.329Z,96.45
2019-03-17T09:24:35.712Z,96.89
2019-03-17T09:25:35.714Z,96.22
2019-03-17T09:26:35.662Z,96.22
2019-03-17T09:27:35.652Z,96.12
2019-03-17T09:28:35.611Z,96.12
2019-03-17T09:29:36.420Z,96.03
2019-03-17T09:30:35.560Z,96.12
2019-03-17T09:31:35.537Z,96.89
2019-03-17T09:32:35.513Z,96.26
2019-03-17T09:33:35.486Z,96.12
2019-03-17T09:34:35.473Z,96.03
2019-03-17T09:35:35.596Z,96.12
2019-03-17T09:36:35.413Z,95.84
2019-03-17T09:37:35.445Z,95.75
2019-03-17T09:38:46.805Z,96.12
2019-03-17T09:39:35.345Z,96.41
2019-03-17T09:40:35.344Z,96.12
2019-03-17T09:41:35.297Z,95.75
2019-03-17T09:42:35.268Z,95.94
2019-03-17T09:43:35.241Z,96.12
2019-03-17T09:44:35.404Z,95.27
2019-03-17T09:45:35.187Z,95.56
2019-03-17T09:46:35.162Z,95.27
2019-03-17T09:47:35.139Z,95.36
2019-03-17T09:48:35.120Z,95.56
2019-03-17T09:49:35.117Z,95.27
2019-03-17T09:50:35.068Z,95.27
2019-03-17T09:51:35.045Z,94.89
2019-03-17T09:52:35.016Z,95.36
2019-03-17T09:53:35.015Z,95.46
2019-03-17T09:54:34.964Z,95.46
2019-03-17T09:55:34.948Z,94.98
2019-03-17T09:56:34.916Z,95.75
2019-03-17T09:57:34.892Z,95.36
2019-03-17T09:58:34.871Z,95.56
2019-03-17T09:59:34.841Z,95.36
2019-03-17T10:00:34.819Z,96.41
2019-03-17T10:01:34.790Z,95.56
2019-03-17T10:02:34.768Z,95.27
2019-03-17T10:03:34.744Z,94.79
2019-03-17T10:04:34.716Z,94.89
2019-03-17T10:05:34.692Z,95.60
2019-03-17T10:06:34.664Z,95.79
2019-03-17T10:07:34.646Z,94.93
2019-03-17T10:08:34.618Z,94.93
2019-03-17T10:09:34.614Z,94.84
2019-03-17T10:10:34.565Z,94.74
2019-03-17T10:11:34.556Z,94.56
2019-03-17T10:12:34.517Z,94.93
2019-03-17T10:13:34.492Z,94.56
2019-03-17T10:14:34.469Z,94.56
2019-03-17T10:15:34.451Z,94.56
2019-03-17T10:16:34.419Z,94.27
2019-03-17T10:17:34.396Z,94.65
2019-03-17T10:18:34.379Z,94.37
2019-03-17T10:19:34.344Z,94.56
2019-03-17T10:20:34.330Z,94.46
2019-03-17T10:21:34.356Z,94.56
2019-03-17T10:22:34.303Z,94.65
2019-03-17T10:23:34.264Z,94.46
2019-03-17T10:24:34.222Z,94.51
2019-03-17T10:25:34.195Z,94.51
2019-03-17T10:26:34.177Z,95.08
2019-03-17T10:27:34.149Z,94.42
2019-03-17T10:28:35.287Z,94.51
2019-03-17T10:29:34.199Z,94.32
2019-03-17T10:30:34.078Z,94.51
2019-03-17T10:31:34.061Z,95.36
2019-03-17T10:32:34.023Z,94.51
2019-03-17T10:33:33.997Z,95.36
2019-03-17T10:34:33.973Z,94.79
2019-03-17T10:35:33.951Z,93.89
2019-03-17T10:36:33.933Z,93.70
2019-03-17T10:37:33.899Z,94.08
2019-03-17T10:38:33.874Z,93.79
2019-03-17T10:39:33.863Z,94.18
2019-03-17T10:40:33.833Z,93.60
2019-03-17T10:41:33.802Z,94.18
2019-03-17T10:42:34.293Z,94.08
2019-03-17T10:43:33.758Z,94.18
2019-03-17T10:44:33.732Z,93.70
2019-03-17T10:45:33.696Z,93.41
2019-03-17T10:46:33.674Z,93.89
2019-03-17T10:47:33.656Z,93.51
2019-03-17T10:48:33.622Z,93.79
2019-03-17T10:49:33.595Z,93.41
2019-03-17T10:50:33.570Z,93.79
2019-03-17T10:51:33.547Z,93.60
2019-03-17T10:52:33.519Z,94.03
2019-03-17T10:53:33.990Z,93.46
2019-03-17T10:54:33.472Z,93.84
2019-03-17T10:55:33.452Z,93.18
2019-03-17T10:56:33.661Z,92.94
2019-03-17T10:57:33.395Z,93.13
2019-03-17T10:58:33.371Z,92.22
2019-03-17T10:59:33.352Z,92.32
2019-03-17T11:00:33.336Z,93.08
2019-03-17T11:01:33.297Z,92.99
2019-03-17T11:02:33.275Z,93.65
2019-03-17T11:03:33.251Z,91.84
2019-03-17T11:04:33.226Z,91.31
2019-03-17T11:05:33.243Z,90.84
2019-03-17T11:06:33.826Z,90.56
2019-03-17T11:07:33.167Z,90.22
2019-03-17T11:08:33.134Z,90.32
2019-03-17T11:09:33.110Z,91.56
2019-03-17T11:10:33.085Z,90.75
2019-03-17T11:11:33.065Z,91.03
2019-03-17T11:12:33.043Z,89.75
2019-03-17T11:13:33.034Z,89.46
2019-03-17T11:14:33.098Z,89.46
2019-03-17T11:15:32.978Z,89.50
2019-03-17T11:16:32.950Z,88.40
2019-03-17T11:17:32.930Z,87.45
2019-03-17T11:18:32.907Z,87.26
2019-03-17T11:19:32.883Z,86.49
2019-03-17T11:20:32.863Z,86.69
2019-03-17T11:21:32.843Z,86.69
2019-03-17T11:22:32.815Z,86.21
2019-03-17T11:23:32.798Z,86.06
2019-03-17T11:24:32.777Z,86.02
2019-03-17T11:25:32.765Z,86.26
2019-03-17T11:26:32.736Z,87.30
2019-03-17T11:27:32.724Z,87.16
2019-03-17T11:28:32.720Z,87.16
2019-03-17T11:29:32.673Z,86.45
2019-03-17T11:30:32.663Z,87.46
2019-03-17T11:31:32.635Z,87.55
2019-03-17T11:32:32.614Z,89.03
2019-03-17T11:33:32.592Z,89.13
2019-03-17T11:34:32.571Z,89.61
2019-03-17T11:35:32.551Z,89.75
2019-03-17T11:36:32.528Z,90.42
2019-03-17T11:37:32.507Z,91.17
2019-03-17T11:38:32.482Z,91.17
2019-03-17T11:39:37.766Z,91.94
2019-03-17T11:40:32.439Z,92.46
2019-03-17T11:41:32.432Z,90.84
2019-03-17T11:42:32.406Z,92.65
2019-03-17T11:43:32.459Z,92.18
2019-03-17T11:44:32.351Z,91.32
2019-03-17T11:45:32.332Z,91.03
2019-03-17T11:46:32.305Z,92.18
2019-03-17T11:47:32.283Z,91.22
2019-03-17T11:48:32.269Z,91.61
2019-03-17T11:49:32.240Z,91.32
2019-03-17T11:50:32.223Z,91.89
2019-03-17T11:51:32.198Z,92.08
2019-03-17T11:52:32.170Z,91.99
2019-03-17T11:53:32.145Z,91.32
2019-03-17T11:54:32.125Z,91.70
2019-03-17T11:55:32.149Z,91.32
2019-03-17T11:56:32.076Z,90.37
2019-03-17T11:57:32.056Z,90.37
2019-03-17T11:58:32.036Z,90.08
2019-03-17T11:59:32.002Z,90.18
2019-03-17T12:00:31.983Z,89.80
2019-03-17T12:01:31.958Z,88.85
2019-03-17T12:02:31.934Z,89.23
2019-03-17T12:03:31.932Z,89.23
2019-03-17T12:04:31.896Z,88.94
2019-03-17T12:05:31.890Z,89.23
2019-03-17T12:06:31.844Z,89.23
2019-03-17T12:07:31.823Z,89.23
2019-03-17T12:08:31.825Z,88.94
2019-03-17T12:09:31.774Z,87.94
2019-03-17T12:10:31.771Z,88.13
2019-03-17T12:11:33.333Z,88.18
2019-03-17T12:12:31.704Z,88.37
2019-03-17T12:13:31.681Z,87.52
2019-03-17T12:14:31.655Z,87.99
2019-03-17T12:15:31.635Z,88.70
2019-03-17T12:16:31.612Z,87.89
2019-03-17T12:17:32.343Z,87.70
2019-03-17T12:18:31.564Z,87.60
2019-03-17T12:19:32.843Z,87.23
2019-03-17T12:20:31.523Z,87.56
2019-03-17T12:21:31.499Z,87.60
2019-03-17T12:22:31.478Z,88.18
2019-03-17T12:23:31.452Z,87.89
2019-03-17T12:24:31.452Z,87.36
2019-03-17T12:25:31.409Z,86.88
2019-03-17T12:26:31.387Z,86.60
2019-03-17T12:27:31.359Z,86.12
2019-03-17T12:28:31.341Z,86.55
2019-03-17T12:29:31.317Z,86.74
2019-03-17T12:30:31.298Z,86.55
2019-03-17T12:31:31.272Z,86.03
2019-03-17T12:32:31.251Z,86.65
2019-03-17T12:33:31.227Z,86.65
2019-03-17T12:34:31.211Z,86.98
2019-03-17T12:35:31.199Z,87.74
2019-03-17T12:36:31.159Z,87.74
2019-03-17T12:37:31.148Z,86.60
2019-03-17T12:38:31.320Z,87.46
2019-03-17T12:39:31.139Z,86.60
2019-03-17T12:40:31.070Z,86.69
2019-03-17T12:41:31.051Z,87.12
2019-03-17T12:42:31.032Z,85.60
2019-03-17T12:43:31.009Z,85.64
2019-03-17T12:44:30.987Z,85.45
2019-03-17T12:45:30.961Z,85.25
2019-03-17T12:46:30.941Z,85.41
2019-03-17T12:47:30.919Z,85.64
2019-03-17T12:48:30.955Z,85.12
2019-03-17T12:49:31.274Z,84.74
2019-03-17T12:50:30.859Z,85.69
2019-03-17T12:51:30.834Z,85.21
2019-03-17T12:52:30.813Z,84.26